Terminal Aerodrome Forecast
Issued by NWS

Home | Current Version | Previous Version | Text Only | Print | Product List | Glossary On
Versions: 1 2 3 4 5 6 7 8 9 10 11 12 13 14 15 16
000
FTUS41 KILN 241700
TAFLCK
TAF
KLCK 241735Z 2418/2518 13010KT P6SM SCT100 BKN250
     FM250100 13006KT P6SM BKN250
     FM251000 14009KT 5SM -SHRA OVC060
     FM251300 15012KT P6SM VCSH OVC035
     FM251500 19013KT 4SM -SHRA VCTS OVC020CB=

USA.gov is the U.S. government's official web portal to all federal, state and local government web resources and services.